Time;durP1;ratioP1;P1;durP2;ratioP2;P2;SDS_P1;SDS_P2;PMS_P1;PMS_P2;Temp;Humidity;BMP_temperature;BMP_pressure;BME280_temperature;BME280_humidity;BME280_pressure;Samples;Min_cycle;Max_cycle;Signal;HPM_P1;HPM_P2
2023/07/22 00:00:14;;;;;;;15.40;13.68;;;;;;;17.89;54.88;101298.84;5054925;28;20060;-70
2023/07/22 00:02:39;;;;;;;18.30;12.90;;;;;;;17.85;55.34;101294.97;5047067;28;20021;-69
2023/07/22 00:05:05;;;;;;;16.45;13.75;;;;;;;17.86;55.32;101302.25;5061729;28;20062;-71
2023/07/22 00:07:30;;;;;;;18.15;13.43;;;;;;;17.82;55.37;101298.34;5065901;28;20533;-70
2023/07/22 00:09:55;;;;;;;16.48;13.73;;;;;;;17.90;55.38;101298.56;5062641;28;20547;-70
2023/07/22 00:12:25;;;;;;;18.65;14.30;;;;;;;17.95;55.42;101302.47;5049712;28;20033;-70
2023/07/22 00:14:51;;;;;;;16.33;13.82;;;;;;;17.87;55.53;101301.09;5052024;28;20539;-70
2023/07/22 00:17:16;;;;;;;17.70;13.98;;;;;;;17.87;55.78;101293.50;5046572;28;20053;-70
2023/07/22 00:19:42;;;;;;;17.63;14.65;;;;;;;17.85;55.75;101297.75;5056397;28;20153;-70
2023/07/22 00:22:07;;;;;;;18.73;13.63;;;;;;;17.83;55.62;101292.41;5067202;28;20052;-70
2023/07/22 00:24:33;;;;;;;16.85;13.00;;;;;;;17.79;55.71;101293.31;5065650;28;20776;-70
2023/07/22 00:26:59;;;;;;;19.40;14.50;;;;;;;17.86;55.66;101297.47;5068144;28;20472;-70
2023/07/22 00:29:24;;;;;;;18.40;13.80;;;;;;;17.83;55.76;101286.81;5052057;28;20039;-70
2023/07/22 00:31:49;;;;;;;16.55;12.90;;;;;;;17.78;55.89;101283.22;5062705;28;20111;-70
2023/07/22 00:34:15;;;;;;;17.90;13.20;;;;;;;17.79;55.65;101290.50;5063873;28;20712;-70
2023/07/22 00:36:40;;;;;;;14.13;12.50;;;;;;;17.80;55.64;101292.16;5051576;28;20036;-71
2023/07/22 00:39:06;;;;;;;15.48;12.50;;;;;;;17.77;56.02;101299.22;5052754;28;21954;-70
2023/07/22 00:41:31;;;;;;;14.80;11.73;;;;;;;17.80;56.07;101298.66;5071817;28;20021;-70
2023/07/22 00:43:57;;;;;;;15.73;13.30;;;;;;;17.74;56.25;101293.31;5080668;28;20079;-70
2023/07/22 00:46:22;;;;;;;15.18;12.93;;;;;;;17.71;56.42;101291.91;5070567;28;20036;-70
2023/07/22 00:48:49;;;;;;;15.48;12.98;;;;;;;17.69;56.19;101287.75;5066183;28;20037;-70
2023/07/22 00:51:15;;;;;;;16.90;12.45;;;;;;;17.75;56.29;101293.03;5058614;28;20052;-70
2023/07/22 00:53:40;;;;;;;15.85;12.45;;;;;;;17.71;56.42;101279.84;5064136;28;20059;-70
2023/07/22 00:56:06;;;;;;;15.60;12.23;;;;;;;17.62;56.63;101280.47;5059718;28;20537;-70
2023/07/22 00:58:32;;;;;;;15.23;12.95;;;;;;;17.67;56.65;101274.81;5069865;28;20054;-70
2023/07/22 01:00:57;;;;;;;14.65;12.45;;;;;;;17.65;56.77;101282.69;5074717;28;20054;-70
2023/07/22 01:03:23;;;;;;;16.55;12.40;;;;;;;17.66;56.88;101280.72;5072598;28;20056;-70
2023/07/22 01:05:49;;;;;;;17.48;12.60;;;;;;;17.66;56.90;101278.75;5073190;28;20025;-70
2023/07/22 01:08:14;;;;;;;16.02;12.77;;;;;;;17.64;57.12;101280.16;5062320;28;20041;-70
2023/07/22 01:10:40;;;;;;;14.95;12.73;;;;;;;17.67;57.20;101282.41;5081605;28;20035;-70
2023/07/22 01:13:05;;;;;;;17.48;12.77;;;;;;;17.63;57.29;101281.28;5056660;28;20055;-71
2023/07/22 01:15:31;;;;;;;17.42;12.95;;;;;;;17.63;57.13;101278.50;5054382;28;20408;-70
2023/07/22 01:18:01;;;;;;;16.88;13.27;;;;;;;17.60;57.38;101270.63;5054252;28;20127;-70
2023/07/22 01:20:28;;;;;;;17.40;13.23;;;;;;;17.56;57.42;101266.75;5053336;28;20071;-70
2023/07/22 01:22:54;;;;;;;17.67;13.23;;;;;;;17.58;57.47;101270.09;5067632;28;20032;-70
2023/07/22 01:25:21;;;;;;;16.77;13.30;;;;;;;17.52;57.80;101265.66;5088048;28;20035;-70
2023/07/22 01:27:47;;;;;;;17.10;12.65;;;;;;;17.54;57.70;101274.63;5073079;28;20028;-70
2023/07/22 01:30:14;;;;;;;17.05;12.98;;;;;;;17.53;57.79;101272.97;5059339;28;20021;-70
2023/07/22 01:32:39;;;;;;;17.48;13.50;;;;;;;17.51;57.82;101267.63;5053348;28;20059;-70
2023/07/22 01:35:05;;;;;;;18.15;13.23;;;;;;;17.54;57.73;101269.00;5054504;28;20029;-70
2023/07/22 01:37:31;;;;;;;18.33;12.90;;;;;;;17.50;57.86;101267.91;5053567;28;20491;-70
2023/07/22 01:39:57;;;;;;;16.25;13.10;;;;;;;17.54;57.63;101269.00;5053525;28;20029;-70
2023/07/22 01:42:23;;;;;;;17.40;13.68;;;;;;;17.53;57.67;101267.34;5091210;28;20446;-70
2023/07/22 01:44:48;;;;;;;18.77;12.88;;;;;;;17.50;57.65;101260.34;5091592;28;20544;-70
2023/07/22 01:47:13;;;;;;;16.92;13.30;;;;;;;17.48;57.48;101254.16;5056387;28;20483;-70
2023/07/22 01:49:39;;;;;;;17.65;13.55;;;;;;;17.50;57.37;101260.34;5073793;28;20069;-71
2023/07/22 01:52:05;;;;;;;16.98;13.13;;;;;;;17.47;57.55;101260.06;5056343;28;20071;-70
2023/07/22 01:54:30;;;;;;;19.23;12.77;;;;;;;17.44;57.77;101247.44;5062110;28;20468;-70
2023/07/22 01:56:55;;;;;;;15.88;13.38;;;;;;;17.44;57.50;101247.44;5089548;28;20016;-70
2023/07/22 01:59:21;;;;;;;17.70;13.75;;;;;;;17.48;57.85;101258.94;5062233;28;20063;-70
2023/07/22 02:01:47;;;;;;;19.70;14.27;;;;;;;17.48;57.53;101248.53;5066175;28;20103;-70
2023/07/22 02:04:13;;;;;;;15.07;13.18;;;;;;;17.48;57.61;101251.34;5058431;28;20023;-70
2023/07/22 02:06:38;;;;;;;17.15;13.43;;;;;;;17.41;57.86;101256.47;5053137;28;20415;-71
2023/07/22 02:09:08;;;;;;;16.02;13.23;;;;;;;17.44;57.60;101253.06;5052088;28;20024;-70
2023/07/22 02:11:35;;;;;;;18.25;13.25;;;;;;;17.39;57.87;101256.75;5058213;28;20032;-70
2023/07/22 02:14:00;;;;;;;17.63;13.40;;;;;;;17.42;57.82;101250.56;5072253;28;20369;-70
2023/07/22 02:16:25;;;;;;;15.85;13.10;;;;;;;17.38;58.11;101246.66;5072667;28;20039;-70
2023/07/22 02:18:51;;;;;;;16.85;13.68;;;;;;;17.46;57.62;101245.19;5071904;28;20524;-70
2023/07/22 02:21:16;;;;;;;19.23;13.10;;;;;;;17.43;57.80;101241.00;5091673;28;20039;-70
2023/07/22 02:23:42;;;;;;;20.52;14.63;;;;;;;17.35;58.07;101233.19;5089231;28;20052;-70
2023/07/22 02:26:08;;;;;;;18.77;13.38;;;;;;;17.34;58.29;101239.94;5052815;28;20043;-70
2023/07/22 02:28:33;;;;;;;18.98;13.77;;;;;;;17.38;58.21;101243.00;5059471;28;20073;-70
2023/07/22 02:31:02;;;;;;;18.25;13.25;;;;;;;17.34;58.50;101239.94;5058505;28;20032;-70
2023/07/22 02:33:27;;;;;;;16.95;13.15;;;;;;;17.39;58.10;101245.50;5052659;28;20081;-70
2023/07/22 02:35:53;;;;;;;19.48;14.45;;;;;;;17.36;58.40;101246.09;5083059;28;20452;-70
2023/07/22 02:38:18;;;;;;;18.00;14.02;;;;;;;17.34;58.82;101239.94;5052606;28;20543;-71
2023/07/22 02:40:43;;;;;;;17.30;13.85;;;;;;;17.32;58.71;101235.72;5053148;28;20037;-70
2023/07/22 02:43:09;;;;;;;18.92;13.75;;;;;;;17.28;58.60;101237.44;5051131;28;20412;-70
2023/07/22 02:45:36;;;;;;;19.00;13.52;;;;;;;17.29;58.82;101234.38;5055000;28;20087;-70
2023/07/22 02:48:02;;;;;;;18.15;13.68;;;;;;;17.30;58.81;101244.44;5052679;28;20082;-70
2023/07/22 02:50:27;;;;;;;16.55;13.68;;;;;;;17.20;58.94;101238.03;5073017;28;20032;-70
2023/07/22 02:52:52;;;;;;;18.50;13.48;;;;;;;17.15;58.99;101238.91;5057592;28;20443;-70
2023/07/22 02:55:18;;;;;;;19.73;13.80;;;;;;;17.14;59.20;101228.84;5052524;28;20361;-70
2023/07/22 02:57:44;;;;;;;18.92;14.10;;;;;;;17.12;59.24;101234.72;5051497;28;20428;-70
2023/07/22 03:00:12;;;;;;;18.15;13.43;;;;;;;17.13;59.18;101241.16;5052785;28;20044;-70
2023/07/22 03:02:39;;;;;;;17.88;12.85;;;;;;;17.03;59.42;101244.03;5055643;28;20017;-70
2023/07/22 03:05:07;;;;;;;19.58;13.27;;;;;;;17.08;59.45;101232.78;5071209;28;20036;-70
2023/07/22 03:07:34;;;;;;;22.10;14.23;;;;;;;17.00;59.48;101236.19;5070276;28;20028;-70
2023/07/22 03:09:59;;;;;;;16.98;13.38;;;;;;;17.02;59.53;101231.13;5054506;28;20044;-71
2023/07/22 03:12:25;;;;;;;18.02;13.20;;;;;;;17.02;59.57;101242.34;5071166;28;20476;-70
2023/07/22 03:14:50;;;;;;;19.23;14.20;;;;;;;17.01;59.53;101249.91;5071968;28;20058;-70
2023/07/22 03:17:18;;;;;;;17.13;12.90;;;;;;;16.99;59.63;101246.56;5066739;28;20520;-70
2023/07/22 03:19:43;;;;;;;17.77;13.02;;;;;;;16.93;59.95;101248.53;5069034;28;20097;-70
2023/07/22 03:22:09;;;;;;;17.30;13.02;;;;;;;16.89;60.04;101241.81;5050523;28;20024;-69
2023/07/22 03:24:35;;;;;;;14.75;12.63;;;;;;;16.92;59.94;101263.69;5066362;28;20111;-70
2023/07/22 03:27:00;;;;;;;17.77;13.25;;;;;;;16.87;60.00;101260.06;5057256;28;20139;-70
2023/07/22 03:29:26;;;;;;;16.40;12.90;;;;;;;16.87;60.07;101252.50;5069317;28;20493;-70
2023/07/22 03:31:51;;;;;;;17.20;12.48;;;;;;;16.89;59.94;101261.44;5051787;28;20029;-70
2023/07/22 03:34:16;;;;;;;19.05;12.82;;;;;;;16.83;60.26;101262.59;5069124;28;20035;-70
2023/07/22 03:36:42;;;;;;;18.25;14.23;;;;;;;16.83;60.08;101257.00;5068374;28;20025;-70
2023/07/22 03:39:08;;;;;;;19.08;12.88;;;;;;;16.79;60.45;101257.84;5070328;28;20094;-69
2023/07/22 03:41:33;;;;;;;19.80;13.30;;;;;;;16.76;60.37;101261.22;5070912;28;20534;-70
2023/07/22 03:43:58;;;;;;;17.00;12.80;;;;;;;16.75;60.45;101262.34;5067663;28;20041;-70
2023/07/22 03:46:24;;;;;;;17.25;12.65;;;;;;;16.68;60.56;101255.03;5050861;28;20182;-70
2023/07/22 03:48:49;;;;;;;16.30;12.25;;;;;;;16.66;60.68;101259.22;5051232;28;20110;-70
2023/07/22 03:51:14;;;;;;;19.15;13.65;;;;;;;16.71;60.86;101255.59;5058669;28;20388;-70
2023/07/22 03:53:40;;;;;;;15.77;12.60;;;;;;;16.62;60.84;101258.13;5068061;28;20118;-70
2023/07/22 03:56:05;;;;;;;17.73;12.82;;;;;;;16.63;60.91;101257.03;5057804;28;20484;-70
2023/07/22 03:58:30;;;;;;;19.55;13.43;;;;;;;16.60;60.73;101260.38;5071351;28;20030;-70
2023/07/22 04:00:55;;;;;;;18.40;13.45;;;;;;;16.61;61.07;101260.09;5064338;28;20063;-70
2023/07/22 04:03:21;;;;;;;18.63;13.90;;;;;;;16.56;61.09;101256.47;5061477;28;20028;-70
2023/07/22 04:05:56;;;;;;;18.17;13.32;;;;;;;16.60;60.93;101258.41;5069968;28;20032;-70
2023/07/22 04:08:22;;;;;;;18.42;12.82;;;;;;;16.57;61.13;101252.53;5070522;28;20537;-70
2023/07/22 04:10:54;;;;;;;18.67;12.82;;;;;;;16.56;61.31;101248.06;5071245;28;20024;-70
2023/07/22 04:13:19;;;;;;;;;;;;;;;16.80;59.62;101254.75;5061341;28;20040;-70
2023/07/22 04:15:46;;;;;;;16.70;12.55;;;;;;;16.64;60.74;101251.13;5066818;28;20018;-70
2023/07/22 04:18:11;;;;;;;18.48;12.38;;;;;;;16.58;61.02;101260.66;5065210;28;20091;-70
2023/07/22 04:20:36;;;;;;;15.63;12.88;;;;;;;16.52;61.13;101255.38;5064419;28;20060;-70
2023/07/22 04:23:02;;;;;;;20.27;14.20;;;;;;;16.44;61.49;101254.81;5087494;28;20458;-70
2023/07/22 04:25:27;;;;;;;17.95;12.73;;;;;;;16.45;61.27;101259.28;5091597;28;20024;-70
2023/07/22 04:27:52;;;;;;;17.20;14.05;;;;;;;16.41;61.56;101252.56;5090824;28;20074;-70
2023/07/22 04:30:20;;;;;;;17.52;13.60;;;;;;;16.47;61.38;101256.22;5076198;28;20044;-69
2023/07/22 04:32:49;;;;;;;16.98;12.82;;;;;;;16.43;61.50;101255.09;5070491;28;20107;-70
2023/07/22 04:35:14;;;;;;;18.08;13.68;;;;;;;16.38;61.83;101255.91;5070891;28;20039;-70
2023/07/22 04:37:39;;;;;;;19.08;12.73;;;;;;;16.43;61.57;101260.72;5054502;28;20033;-70
2023/07/22 04:40:08;;;;;;;18.50;12.30;;;;;;;16.41;61.63;101268.53;5054983;28;20029;-70
2023/07/22 04:42:34;;;;;;;17.83;11.95;;;;;;;16.45;61.41;101267.69;5057255;28;20060;-70
2023/07/22 04:44:59;;;;;;;17.75;13.18;;;;;;;16.50;61.28;101268.81;5073141;28;20068;-70
2023/07/22 04:47:24;;;;;;;17.90;13.48;;;;;;;16.41;61.78;101258.16;5065606;28;20064;-70
2023/07/22 04:49:49;;;;;;;17.88;11.95;;;;;;;16.50;61.58;101263.19;5054113;28;20062;-70
2023/07/22 04:52:15;;;;;;;19.23;12.52;;;;;;;16.52;61.75;101263.78;5063619;28;20025;-70
2023/07/22 04:54:41;;;;;;;17.70;13.35;;;;;;;16.51;61.56;101262.09;5075038;28;20383;-70
2023/07/22 04:57:07;;;;;;;17.05;13.30;;;;;;;16.52;61.69;101274.97;5073386;28;20024;-67
2023/07/22 04:59:32;;;;;;;19.85;13.73;;;;;;;16.52;61.71;101269.38;5072403;28;20036;-70
2023/07/22 05:01:58;;;;;;;17.58;13.57;;;;;;;16.57;61.68;101272.16;5056377;28;20537;-70
2023/07/22 05:04:24;;;;;;;14.70;12.18;;;;;;;16.63;61.16;101268.22;5064322;28;20025;-70
2023/07/22 05:06:49;;;;;;;16.67;12.63;;;;;;;16.58;61.65;101271.03;5055388;28;20460;-70
2023/07/22 05:09:15;;;;;;;17.70;12.82;;;;;;;16.58;61.13;101273.81;5054322;28;20032;-73
2023/07/22 05:11:40;;;;;;;17.67;12.30;;;;;;;16.63;61.54;101277.47;5058369;28;20021;-70
2023/07/22 05:14:05;;;;;;;16.77;12.50;;;;;;;16.60;61.69;101275.22;5069904;28;20037;-71
2023/07/22 05:16:31;;;;;;;16.05;12.52;;;;;;;16.63;61.61;101282.25;5054500;28;20087;-71
2023/07/22 05:18:56;;;;;;;17.92;12.38;;;;;;;16.63;61.62;101276.63;5054592;28;20530;-70
2023/07/22 05:21:21;;;;;;;18.90;12.90;;;;;;;16.66;61.57;101276.91;5069330;28;20029;-71
2023/07/22 05:23:47;;;;;;;16.70;12.38;;;;;;;16.62;61.73;101280.53;5078965;28;20373;-72
2023/07/22 05:26:12;;;;;;;17.60;12.35;;;;;;;16.63;61.59;101276.63;5053648;28;20028;-70
2023/07/22 05:28:37;;;;;;;17.75;12.65;;;;;;;16.63;61.73;101283.09;5054925;28;20064;-71
2023/07/22 05:31:03;;;;;;;17.48;12.57;;;;;;;16.64;62.00;101275.50;5065023;28;20483;-71
2023/07/22 05:33:28;;;;;;;16.85;12.15;;;;;;;16.59;62.02;101276.38;5072555;28;20435;-69
2023/07/22 05:35:53;;;;;;;20.65;12.57;;;;;;;16.59;62.16;101278.34;5058449;28;20537;-71
2023/07/22 05:38:19;;;;;;;16.50;11.98;;;;;;;16.65;62.16;101274.38;5070074;28;20481;-71
2023/07/22 05:40:44;;;;;;;16.45;12.68;;;;;;;16.76;61.67;101267.66;5063695;28;20082;-72
2023/07/22 05:43:09;;;;;;;17.60;12.32;;;;;;;16.75;61.93;101274.41;5078481;28;20028;-70
2023/07/22 05:45:35;;;;;;;19.92;13.15;;;;;;;16.77;62.13;101272.13;5059775;28;20024;-72
2023/07/22 05:48:00;;;;;;;18.52;12.40;;;;;;;16.84;61.97;101281.09;5072658;28;20030;-68
2023/07/22 05:50:25;;;;;;;18.05;12.07;;;;;;;16.83;62.19;101273.81;5054182;28;20020;-70
2023/07/22 05:52:51;;;;;;;19.13;12.65;;;;;;;16.88;62.09;101273.78;5053090;28;20020;-70
2023/07/22 05:55:16;;;;;;;20.50;13.27;;;;;;;16.84;62.19;101275.47;5054023;28;20477;-70
2023/07/22 05:57:42;;;;;;;16.15;12.20;;;;;;;16.90;62.07;101268.75;5055892;28;20502;-69
2023/07/22 06:00:08;;;;;;;22.50;13.70;;;;;;;16.92;62.22;101268.44;5070262;28;20028;-70
2023/07/22 06:02:34;;;;;;;16.55;12.75;;;;;;;16.98;62.17;101269.25;5065656;28;20021;-70
2023/07/22 06:04:59;;;;;;;18.70;12.82;;;;;;;17.07;62.30;101267.56;5053936;28;20367;-70
2023/07/22 06:07:25;;;;;;;15.88;11.68;;;;;;;17.18;62.04;101260.78;5052442;28;20036;-70
2023/07/22 06:09:50;;;;;;;21.40;12.98;;;;;;;17.22;62.04;101267.50;5053032;28;20036;-70
2023/07/22 06:12:15;;;;;;;17.88;12.48;;;;;;;17.34;62.00;101269.97;5058172;28;20029;-70
2023/07/22 06:14:41;;;;;;;21.67;12.95;;;;;;;17.41;61.73;101265.72;5075343;28;20029;-70
2023/07/22 06:17:06;;;;;;;20.33;12.75;;;;;;;17.45;61.86;101265.97;5054538;28;20118;-70
2023/07/22 06:19:31;;;;;;;20.80;13.27;;;;;;;17.53;61.69;101261.72;5055350;28;20473;-70
2023/07/22 06:21:57;;;;;;;20.27;12.85;;;;;;;17.52;61.76;101260.88;5066284;28;20032;-69
2023/07/22 06:24:22;;;;;;;18.90;12.88;;;;;;;17.55;62.04;101254.69;5073052;28;20027;-69
2023/07/22 06:26:47;;;;;;;18.50;13.23;;;;;;;17.59;61.81;101255.78;5072869;28;20029;-69
2023/07/22 06:29:13;;;;;;;17.65;14.02;;;;;;;17.67;61.67;101260.78;5087488;28;20032;-69
2023/07/22 06:31:38;;;;;;;17.63;13.55;;;;;;;17.68;62.00;101253.19;5068004;28;20389;-70
2023/07/22 06:34:03;;;;;;;17.73;13.35;;;;;;;17.65;61.96;101257.44;5057882;28;20087;-70
2023/07/22 06:36:28;;;;;;;23.08;14.00;;;;;;;17.64;62.10;101252.09;5052698;28;20029;-70
2023/07/22 06:38:54;;;;;;;24.20;14.50;;;;;;;17.63;62.53;101253.22;5071833;28;20505;-70
2023/07/22 06:41:20;;;;;;;21.40;14.27;;;;;;;17.63;62.65;101250.41;5072621;28;20016;-70
2023/07/22 06:43:46;;;;;;;22.83;14.40;;;;;;;17.67;62.82;101248.72;5071974;28;20024;-70
2023/07/22 06:46:11;;;;;;;19.88;13.77;;;;;;;17.70;62.59;101250.94;5072906;28;20028;-70
2023/07/22 06:48:36;;;;;;;23.02;14.82;;;;;;;17.75;62.58;101245.31;5078307;28;20491;-70
2023/07/22 06:51:02;;;;;;;21.35;14.82;;;;;;;17.80;62.53;101247.22;5080208;28;20020;-70
2023/07/22 06:53:27;;;;;;;23.83;15.30;;;;;;;17.84;62.45;101237.97;5060929;28;20033;-69
2023/07/22 06:55:52;;;;;;;20.85;14.30;;;;;;;17.88;62.45;101246.59;5067834;28;20056;-71
2023/07/22 06:58:19;;;;;;;18.55;13.88;;;;;;;17.98;61.98;101245.72;5056117;28;20028;-68
2023/07/22 07:00:44;;;;;;;21.88;13.32;;;;;;;18.06;61.78;101245.91;5056476;28;20025;-69
2023/07/22 07:03:10;;;;;;;18.77;13.63;;;;;;;18.15;62.09;101241.31;5069726;28;20060;-68
2023/07/22 07:05:35;;;;;;;21.83;14.43;;;;;;;18.22;61.76;101240.16;5077444;28;20027;-69
2023/07/22 07:08:00;;;;;;;20.75;14.50;;;;;;;18.16;62.27;101242.19;5073442;28;20032;-69
2023/07/22 07:10:26;;;;;;;24.90;15.48;;;;;;;18.12;62.47;101238.28;5066192;28;20028;-66
2023/07/22 07:12:51;;;;;;;23.05;13.95;;;;;;;18.19;62.28;101244.38;5062609;28;20029;-69
2023/07/22 07:15:16;;;;;;;24.40;14.07;;;;;;;18.20;62.26;101236.81;5056323;28;20036;-70
2023/07/22 07:17:42;;;;;;;19.27;13.48;;;;;;;18.22;62.18;101242.97;5066602;28;20145;-70
2023/07/22 07:20:07;;;;;;;23.67;14.35;;;;;;;18.16;62.40;101245.00;5087299;28;20476;-72
2023/07/22 07:22:33;;;;;;;20.98;13.75;;;;;;;18.19;62.50;101235.13;5065364;28;20036;-68
2023/07/22 07:24:58;;;;;;;21.83;14.20;;;;;;;18.14;62.86;101231.22;5048348;28;20469;-68
2023/07/22 07:27:23;;;;;;;22.25;14.20;;;;;;;18.14;62.80;101244.44;5056833;28;20029;-73
2023/07/22 07:29:49;;;;;;;19.77;14.13;;;;;;;18.08;62.64;101242.81;5054626;28;20031;-69
2023/07/22 07:32:14;;;;;;;22.05;13.40;;;;;;;18.07;63.08;101238.31;5064551;28;20535;-69
2023/07/22 07:34:39;;;;;;;21.75;13.73;;;;;;;18.07;63.19;101239.16;5072090;28;20375;-69
2023/07/22 07:37:05;;;;;;;22.25;13.10;;;;;;;18.09;63.12;101242.53;5075402;28;20386;-69
2023/07/22 07:39:30;;;;;;;18.67;12.50;;;;;;;18.08;63.68;101240.03;5085071;28;20067;-69
2023/07/22 07:41:56;;;;;;;17.17;12.13;;;;;;;18.16;63.24;101239.38;5090744;28;20035;-69
2023/07/22 07:44:21;;;;;;;19.67;12.48;;;;;;;18.22;63.25;101238.19;5091558;28;20032;-69
2023/07/22 07:46:46;;;;;;;20.55;13.38;;;;;;;18.25;63.69;101240.41;5083817;28;20028;-68
2023/07/22 07:49:12;;;;;;;20.75;13.10;;;;;;;18.25;63.29;101234.78;5079703;28;20131;-69
2023/07/22 07:51:37;;;;;;;22.08;12.40;;;;;;;18.27;63.37;101238.13;5087997;28;20034;-69
2023/07/22 07:54:04;;;;;;;19.08;12.23;;;;;;;18.32;62.96;101240.91;5090551;28;20028;-69
2023/07/22 07:56:29;;;;;;;21.85;12.98;;;;;;;18.35;63.23;101248.75;5090957;28;20097;-69
2023/07/22 07:58:55;;;;;;;21.25;11.80;;;;;;;18.44;63.29;101246.13;5090341;28;20028;-69
2023/07/22 08:01:21;;;;;;;21.98;11.60;;;;;;;18.44;62.66;101248.94;5090629;28;20069;-69
2023/07/22 08:03:47;;;;;;;18.30;11.50;;;;;;;18.46;62.20;101245.81;5079600;28;20499;-69
2023/07/22 08:06:13;;;;;;;17.33;10.70;;;;;;;18.49;62.21;101248.88;5050544;28;20060;-69
2023/07/22 08:08:39;;;;;;;19.98;11.55;;;;;;;18.50;62.07;101242.13;5049657;28;20063;-69
2023/07/22 08:11:13;;;;;;;18.35;11.10;;;;;;;18.54;61.82;101248.81;5054980;28;20515;-69
2023/07/22 08:13:38;;;;;;;18.00;11.32;;;;;;;18.57;61.80;101245.44;5090169;28;20024;-69
2023/07/22 08:16:06;;;;;;;20.75;10.82;;;;;;;18.58;61.79;101237.81;5090326;28;20048;-69
2023/07/22 08:18:32;;;;;;;14.60;10.73;;;;;;;18.60;62.17;101247.66;5085556;28;20041;-70
2023/07/22 08:20:58;;;;;;;16.42;10.52;;;;;;;18.58;61.78;101246.25;5061670;28;20033;-70
2023/07/22 08:23:24;;;;;;;16.38;11.32;;;;;;;18.59;62.26;101243.16;5070151;28;20070;-69
2023/07/22 08:25:50;;;;;;;16.45;11.25;;;;;;;18.59;61.31;101243.16;5067039;28;20035;-69
2023/07/22 08:28:16;;;;;;;16.90;10.93;;;;;;;18.62;61.54;101245.34;5054094;28;20060;-70
2023/07/22 08:30:42;;;;;;;11.48;8.85;;;;;;;18.75;61.29;101249.50;5062191;28;20025;-67
2023/07/22 08:33:09;;;;;;;13.75;9.30;;;;;;;18.84;60.77;101256.13;5050817;28;20381;-70
2023/07/22 08:35:36;;;;;;;11.45;8.10;;;;;;;19.06;60.57;101246.28;5069905;28;20039;-71
2023/07/22 08:38:02;;;;;;;13.30;9.00;;;;;;;19.15;58.63;101246.47;5062727;28;20060;-70
2023/07/22 08:40:32;;;;;;;12.23;7.30;;;;;;;19.32;59.26;101247.63;5070272;28;20028;-70
2023/07/22 08:42:57;;;;;;;15.18;8.93;;;;;;;19.49;59.24;101235.00;5069321;28;20075;-70
2023/07/22 08:45:29;;;;;;;11.80;7.35;;;;;;;19.68;58.79;101240.69;5070298;28;20526;-70
2023/07/22 08:47:58;;;;;;;10.40;6.60;;;;;;;19.82;57.98;101239.63;5067809;28;20158;-71
2023/07/22 08:50:29;;;;;;;11.18;7.68;;;;;;;19.83;56.86;101246.06;5075458;28;20498;-70
2023/07/22 08:52:55;;;;;;;12.17;7.07;;;;;;;19.91;57.11;101245.38;5089899;28;20365;-71
2023/07/22 08:55:20;;;;;;;12.23;7.28;;;;;;;20.00;57.20;101242.69;5090695;28;20058;-71
2023/07/22 08:57:48;;;;;;;10.60;7.25;;;;;;;20.11;56.72;101242.22;5088938;28;20051;-70
2023/07/22 09:00:14;;;;;;;13.73;8.10;;;;;;;20.04;55.80;101252.22;5090586;28;20062;-71
2023/07/22 09:02:41;;;;;;;10.07;6.60;;;;;;;20.08;56.71;101234.41;5076592;28;20048;-71
2023/07/22 09:05:07;;;;;;;7.43;6.43;;;;;;;20.14;56.54;101249.22;5059665;28;20507;-70
2023/07/22 09:07:33;;;;;;;11.40;6.85;;;;;;;20.09;55.64;101238.88;5050123;28;20029;-71
2023/07/22 09:10:00;;;;;;;10.30;6.55;;;;;;;20.09;56.00;101246.50;5048531;28;20852;-71
2023/07/22 09:12:25;;;;;;;13.88;7.43;;;;;;;20.14;56.30;101240.78;5050545;28;20040;-70
2023/07/22 09:14:52;;;;;;;13.73;7.57;;;;;;;20.18;56.47;101247.47;5049820;28;20021;-70
2023/07/22 09:17:17;;;;;;;8.52;5.72;;;;;;;20.26;55.65;101249.56;5050179;28;20118;-70
2023/07/22 09:19:42;;;;;;;13.52;6.55;;;;;;;20.23;55.10;101243.72;5055280;28;20060;-71
2023/07/22 09:22:08;;;;;;;11.35;6.40;;;;;;;20.28;55.50;101236.03;5060297;28;20453;-70
2023/07/22 09:24:33;;;;;;;11.23;6.85;;;;;;;20.31;55.30;101232.56;5055380;28;20025;-70
2023/07/22 09:27:00;;;;;;;13.80;6.82;;;;;;;20.29;54.35;101234.03;5057070;28;20108;-70
2023/07/22 09:29:37;;;;;;;7.78;5.75;;;;;;;20.38;54.96;101222.88;5065744;28;20032;-70
2023/07/22 09:32:03;;;;;;;9.93;7.03;;;;;;;20.37;55.15;101236.16;5053155;28;20039;-70
2023/07/22 09:34:29;;;;;;;8.15;5.82;;;;;;;20.40;55.18;101226.25;5062166;28;20083;-70
2023/07/22 09:37:03;;;;;;;8.25;5.40;;;;;;;20.34;54.97;101231.13;5064964;28;20040;-70
2023/07/22 09:39:29;;;;;;;11.43;6.45;;;;;;;20.34;54.71;101229.13;5066692;28;20480;-71
2023/07/22 09:41:54;;;;;;;6.55;5.20;;;;;;;20.36;54.75;101226.03;5071772;28;20044;-70
2023/07/22 09:44:19;;;;;;;8.77;5.32;;;;;;;20.46;54.74;101225.81;5068260;28;20112;-70
2023/07/22 09:46:49;;;;;;;7.45;5.78;;;;;;;20.46;54.82;101233.44;5066970;28;20035;-71
2023/07/22 09:49:16;;;;;;;8.07;5.38;;;;;;;20.39;54.55;101224.53;5070066;28;20040;-70
2023/07/22 09:51:42;;;;;;;8.80;5.55;;;;;;;20.44;55.10;101221.66;5073567;28;21738;-71
2023/07/22 09:54:07;;;;;;;10.45;5.93;;;;;;;20.33;54.66;101216.19;5064450;28;20029;-71
2023/07/22 09:56:45;;;;;;;11.35;5.80;;;;;;;20.31;56.01;101217.63;5071659;28;20039;-70
2023/07/22 09:59:11;;;;;;;12.82;6.13;;;;;;;20.23;55.26;101224.00;5057869;28;20025;-70
2023/07/22 10:01:40;;;;;;;8.38;4.55;;;;;;;20.22;55.21;101222.31;5053619;28;20048;-70
2023/07/22 10:04:07;;;;;;;6.03;4.55;;;;;;;20.29;54.81;101225.59;5059889;28;20028;-71
2023/07/22 10:06:33;;;;;;;8.15;4.40;;;;;;;20.24;54.49;101229.34;5053112;28;20021;-71
2023/07/22 10:09:07;;;;;;;11.68;4.72;;;;;;;20.31;54.77;101226.94;5052706;28;20107;-71
2023/07/22 10:11:33;;;;;;;5.95;4.15;;;;;;;20.32;54.44;101225.81;5053336;28;20064;-71
2023/07/22 10:13:59;;;;;;;8.73;4.93;;;;;;;20.33;54.92;101227.47;5054874;28;20436;-71
2023/07/22 10:16:24;;;;;;;10.38;5.10;;;;;;;20.37;55.31;101224.03;5059936;28;20094;-73
2023/07/22 10:18:50;;;;;;;11.35;4.88;;;;;;;20.38;55.24;101225.69;5066802;28;20495;-72
2023/07/22 10:21:17;;;;;;;8.00;5.00;;;;;;;20.38;54.44;101225.69;5067730;28;20029;-65
2023/07/22 10:23:45;;;;;;;7.75;3.92;;;;;;;20.39;53.79;101224.53;5057801;28;20078;-71
2023/07/22 10:26:13;;;;;;;9.75;3.70;;;;;;;20.42;53.61;101226.75;5052864;28;20025;-70
2023/07/22 10:28:40;;;;;;;7.55;3.63;;;;;;;20.48;53.20;101228.34;5061211;28;20039;-68
2023/07/22 10:31:05;;;;;;;5.50;3.25;;;;;;;20.57;53.25;101224.50;5055666;28;20025;-70
2023/07/22 10:33:31;;;;;;;7.43;3.33;;;;;;;20.58;52.30;101226.19;5059838;28;20446;-68
2023/07/22 10:36:06;;;;;;;6.93;2.75;;;;;;;20.61;52.78;101216.25;5063953;28;20114;-71
2023/07/22 10:38:32;;;;;;;5.60;2.90;;;;;;;20.64;52.03;101226.94;5059394;28;20592;-72
2023/07/22 10:40:58;;;;;;;4.72;3.15;;;;;;;20.70;52.81;101224.84;5060387;28;20106;-69
2023/07/22 10:43:33;;;;;;;5.90;3.22;;;;;;;20.73;52.53;101227.03;5063380;28;20085;-68
2023/07/22 10:46:06;;;;;;;6.65;3.25;;;;;;;20.78;51.67;101221.28;5068518;28;20070;-68
2023/07/22 10:48:37;;;;;;;7.18;3.42;;;;;;;20.88;51.68;101214.59;5067480;28;20025;-66
2023/07/22 10:51:10;;;;;;;6.90;3.20;;;;;;;20.94;52.00;101210.50;5064496;28;20480;-68
2023/07/22 10:53:43;;;;;;;6.88;2.78;;;;;;;20.99;51.16;101213.25;5058830;28;20040;-71
2023/07/22 10:56:13;;;;;;;9.65;2.67;;;;;;;21.02;49.84;101210.59;5058553;28;20067;-70
2023/07/22 10:58:44;;;;;;;5.28;2.95;;;;;;;21.11;49.95;101207.91;5058634;28;20112;-69
2023/07/22 11:01:28;;;;;;;6.53;2.47;;;;;;;21.08;49.44;101211.34;5070299;28;20040;-68
2023/07/22 11:04:03;;;;;;;6.75;2.60;;;;;;;21.05;49.14;101223.25;5065726;28;20028;-70
2023/07/22 11:06:29;;;;;;;6.97;2.75;;;;;;;21.05;49.03;101214.78;5067090;28;20040;-66